createdAt,value
2018-04-28T00:00:18.817Z,14.87
2018-04-28T00:00:50.046Z,15.43
2018-04-28T00:01:21.312Z,16.05
2018-04-28T00:01:52.570Z,14.18
2018-04-28T00:02:23.784Z,13.98
2018-04-28T00:02:55.064Z,13.70
2018-04-28T00:03:26.292Z,15.38
2018-04-28T00:03:57.517Z,15.52
2018-04-28T00:04:28.726Z,14.07
2018-04-28T00:04:59.940Z,14.43
2018-04-28T00:05:31.144Z,14.68
2018-04-28T00:06:02.353Z,14.75
2018-04-28T00:06:33.567Z,13.82
2018-04-28T00:07:04.814Z,13.65
2018-04-28T00:07:36.012Z,13.77
2018-04-28T00:08:07.240Z,13.52
2018-04-28T00:08:38.509Z,14.82
2018-04-28T00:09:09.719Z,14.70
2018-04-28T00:09:40.934Z,14.25
2018-04-28T00:10:12.166Z,15.43
2018-04-28T00:10:43.374Z,14.50
2018-04-28T00:11:14.583Z,15.40
2018-04-28T00:11:45.827Z,15.50
2018-04-28T00:12:17.023Z,15.10
2018-04-28T00:12:48.284Z,15.95
2018-04-28T00:13:19.492Z,16.20
2018-04-28T00:13:50.711Z,15.35
2018-04-28T00:14:21.917Z,15.57
2018-04-28T00:14:53.118Z,15.63
2018-04-28T00:15:24.303Z,16.00
2018-04-28T00:15:55.541Z,16.33
2018-04-28T00:16:26.771Z,15.43
2018-04-28T00:16:58.002Z,16.42
2018-04-28T00:17:29.218Z,14.95
2018-04-28T00:18:00.487Z,16.40
2018-04-28T00:18:31.698Z,15.38
2018-04-28T00:19:02.914Z,15.88
2018-04-28T00:19:34.122Z,15.20
2018-04-28T00:20:05.465Z,16.12
2018-04-28T00:20:36.686Z,15.70
2018-04-28T00:21:07.952Z,16.60
2018-04-28T00:21:39.165Z,14.85
2018-04-28T00:22:10.372Z,15.52
2018-04-28T00:22:41.613Z,15.40
2018-04-28T00:23:12.832Z,15.43
2018-04-28T00:23:44.041Z,15.95
2018-04-28T00:24:15.248Z,15.32
2018-04-28T00:24:46.461Z,15.40
2018-04-28T00:25:17.665Z,16.08
2018-04-28T00:25:48.872Z,15.10
2018-04-28T00:26:20.081Z,16.15
2018-04-28T00:26:51.282Z,15.15
2018-04-28T00:27:22.537Z,15.30
2018-04-28T00:27:53.734Z,15.40
2018-04-28T00:28:24.973Z,14.98
2018-04-28T00:28:56.209Z,15.00
2018-04-28T00:29:27.424Z,15.52
2018-04-28T00:29:58.630Z,15.68
2018-04-28T00:30:29.859Z,15.52
2018-04-28T00:31:01.065Z,16.02
2018-04-28T00:31:32.271Z,15.48
2018-04-28T00:32:03.475Z,15.07
2018-04-28T00:32:34.741Z,16.35
2018-04-28T00:33:05.952Z,15.68
2018-04-28T00:33:37.175Z,16.30
2018-04-28T00:34:08.386Z,15.60
2018-04-28T00:34:39.590Z,15.25
2018-04-28T00:35:10.852Z,15.57
2018-04-28T00:35:42.067Z,16.15
2018-04-28T00:36:13.286Z,14.90
2018-04-28T00:36:44.504Z,15.20
2018-04-28T00:37:15.719Z,16.92
2018-04-28T00:37:46.983Z,15.57
2018-04-28T00:38:18.190Z,15.75
2018-04-28T00:38:49.400Z,15.85
2018-04-28T00:39:20.619Z,14.95
2018-04-28T00:39:51.835Z,15.60
2018-04-28T00:40:23.053Z,15.55
2018-04-28T00:40:54.261Z,15.70
2018-04-28T00:41:25.480Z,15.18
2018-04-28T00:41:56.699Z,14.20
2018-04-28T00:42:28.232Z,15.60
2018-04-28T00:42:59.486Z,16.27
2018-04-28T00:43:30.696Z,15.05
2018-04-28T00:44:01.904Z,15.48
2018-04-28T00:44:33.118Z,15.65
2018-04-28T00:45:04.350Z,15.88
2018-04-28T00:45:35.561Z,15.95
2018-04-28T00:46:06.780Z,15.65
2018-04-28T00:46:37.983Z,16.05
2018-04-28T00:47:09.194Z,16.00
2018-04-28T00:47:40.396Z,16.08
2018-04-28T00:48:11.645Z,15.02
2018-04-28T00:48:42.864Z,15.98
2018-04-28T00:49:14.075Z,15.98
2018-04-28T00:49:45.336Z,15.50
2018-04-28T00:50:16.568Z,15.65
2018-04-28T00:50:47.785Z,16.20
2018-04-28T00:51:19.098Z,15.55
2018-04-28T00:51:50.284Z,15.60
2018-04-28T00:52:21.513Z,16.08
2018-04-28T00:52:52.765Z,15.82
2018-04-28T00:53:23.982Z,15.35
2018-04-28T00:53:55.193Z,15.63
2018-04-28T00:54:26.400Z,15.65
2018-04-28T00:54:57.664Z,15.52
2018-04-28T00:55:28.882Z,14.48
2018-04-28T00:56:00.095Z,14.93
2018-04-28T00:56:31.324Z,14.75
2018-04-28T00:57:02.589Z,14.82
2018-04-28T00:57:33.814Z,15.52
2018-04-28T00:58:05.029Z,14.65
2018-04-28T00:58:36.243Z,15.65
2018-04-28T00:59:07.462Z,15.80
2018-04-28T00:59:38.672Z,15.88
2018-04-28T01:00:09.887Z,15.50
2018-04-28T01:00:41.111Z,15.55
2018-04-28T01:01:12.321Z,14.07
2018-04-28T01:01:43.540Z,15.13
2018-04-28T01:02:14.773Z,13.98
2018-04-28T01:02:46.010Z,15.02
2018-04-28T01:03:17.237Z,14.95
2018-04-28T01:03:48.452Z,15.00
2018-04-28T01:04:19.663Z,15.13
2018-04-28T01:04:50.919Z,15.30
2018-04-28T01:05:22.129Z,15.70
2018-04-28T01:05:53.356Z,15.70
2018-04-28T01:06:24.574Z,14.60
2018-04-28T01:06:55.796Z,15.30
2018-04-28T01:07:27.005Z,14.65
2018-04-28T01:07:58.227Z,15.25
2018-04-28T01:08:29.454Z,15.10
2018-04-28T01:09:00.671Z,16.58
2018-04-28T01:09:31.913Z,15.68
2018-04-28T01:10:03.181Z,15.27
2018-04-28T01:10:34.394Z,14.45
2018-04-28T01:11:05.608Z,16.15
2018-04-28T01:11:36.818Z,15.60
2018-04-28T01:12:08.023Z,15.18
2018-04-28T01:12:39.273Z,14.10
2018-04-28T01:13:10.489Z,15.18
2018-04-28T01:13:41.705Z,15.18
2018-04-28T01:14:12.921Z,14.65
2018-04-28T01:14:44.136Z,14.60
2018-04-28T01:15:15.366Z,14.80
2018-04-28T01:15:46.595Z,14.55
2018-04-28T01:16:17.800Z,14.35
2018-04-28T01:16:49.018Z,14.90
2018-04-28T01:17:20.248Z,15.50
2018-04-28T01:17:51.497Z,15.60
2018-04-28T01:18:22.710Z,14.00
2018-04-28T01:18:53.934Z,13.98
2018-04-28T01:19:25.211Z,14.18
2018-04-28T01:19:56.408Z,14.60
2018-04-28T01:20:29.174Z,14.55
2018-04-28T01:21:00.375Z,14.60
2018-04-28T01:21:31.590Z,15.40
2018-04-28T01:22:02.796Z,15.88
2018-04-28T01:22:34.021Z,15.57
2018-04-28T01:23:05.256Z,14.02
2018-04-28T01:23:36.466Z,15.15
2018-04-28T01:24:07.721Z,14.63
2018-04-28T01:24:38.929Z,15.65
2018-04-28T01:25:10.134Z,14.65
2018-04-28T01:25:41.354Z,15.60
2018-04-28T01:26:12.563Z,15.23
2018-04-28T01:26:43.777Z,14.60
2018-04-28T01:27:14.989Z,15.07
2018-04-28T01:27:46.244Z,14.90
2018-04-28T01:28:17.464Z,15.75
2018-04-28T01:28:48.685Z,15.40
2018-04-28T01:29:19.895Z,15.52
2018-04-28T01:29:51.108Z,15.45
2018-04-28T01:30:22.348Z,14.73
2018-04-28T01:30:53.569Z,15.15
2018-04-28T01:31:24.768Z,14.60
2018-04-28T01:31:56.002Z,15.27
2018-04-28T01:32:27.253Z,14.52
2018-04-28T01:32:58.472Z,14.90
2018-04-28T01:33:29.701Z,15.38
2018-04-28T01:34:00.912Z,16.12
2018-04-28T01:34:32.117Z,15.23
2018-04-28T01:35:03.377Z,15.50
2018-04-28T01:35:34.576Z,15.48
2018-04-28T01:36:05.790Z,15.95
2018-04-28T01:36:36.997Z,15.40
2018-04-28T01:37:08.211Z,16.45
2018-04-28T01:37:39.428Z,15.70
2018-04-28T01:38:10.646Z,15.32
2018-04-28T01:38:41.839Z,16.30
2018-04-28T01:39:13.112Z,15.60
2018-04-28T01:39:44.387Z,14.65
2018-04-28T01:40:15.596Z,14.40
2018-04-28T01:40:46.801Z,15.68
2018-04-28T01:41:18.013Z,15.82
2018-04-28T01:41:49.265Z,14.95
2018-04-28T01:42:20.496Z,15.52
2018-04-28T01:42:51.717Z,15.38
2018-04-28T01:43:22.945Z,15.07
2018-04-28T01:43:54.163Z,14.25
2018-04-28T01:44:25.375Z,15.43
2018-04-28T01:44:56.621Z,14.98
2018-04-28T01:45:27.848Z,14.68
2018-04-28T01:45:59.070Z,14.25
2018-04-28T01:46:30.275Z,14.70
2018-04-28T01:47:01.502Z,14.73
2018-04-28T01:47:32.722Z,15.07
2018-04-28T01:48:04.071Z,14.68
2018-04-28T01:48:35.258Z,15.10
2018-04-28T01:49:06.481Z,14.98
2018-04-28T01:49:37.730Z,14.68
2018-04-28T01:50:08.987Z,14.80
2018-04-28T01:50:40.197Z,15.52
2018-04-28T01:51:11.405Z,14.82
2018-04-28T01:51:42.616Z,14.50
2018-04-28T01:52:13.845Z,14.45
2018-04-28T01:52:45.052Z,15.05
2018-04-28T01:53:16.270Z,15.60
2018-04-28T01:53:47.494Z,15.05
2018-04-28T01:54:18.707Z,15.77
2018-04-28T01:54:49.922Z,13.38
2018-04-28T01:55:21.179Z,14.75
2018-04-28T01:55:52.383Z,15.48
2018-04-28T01:56:23.601Z,14.87
2018-04-28T01:56:54.801Z,14.25
2018-04-28T01:57:26.013Z,14.25
2018-04-28T01:57:57.216Z,14.90
2018-04-28T01:58:28.807Z,14.73
2018-04-28T01:59:00.018Z,15.32
2018-04-28T01:59:31.229Z,14.70
2018-04-28T02:00:02.977Z,15.07
2018-04-28T02:00:34.221Z,13.70
2018-04-28T02:01:05.433Z,13.30
2018-04-28T02:01:36.660Z,13.82
2018-04-28T02:02:07.920Z,14.48
2018-04-28T02:02:39.138Z,13.82
2018-04-28T02:03:10.341Z,14.05
2018-04-28T02:03:41.549Z,14.55
2018-04-28T02:04:12.757Z,13.77
2018-04-28T02:04:43.962Z,13.35
2018-04-28T02:05:15.165Z,13.93
2018-04-28T02:05:46.370Z,14.27
2018-04-28T02:06:17.581Z,14.43
2018-04-28T02:06:48.821Z,13.13
2018-04-28T02:07:20.065Z,13.62
2018-04-28T02:07:51.267Z,13.15
2018-04-28T02:08:22.481Z,13.52
2018-04-28T02:08:53.688Z,13.75
2018-04-28T02:09:24.921Z,14.02
2018-04-28T02:09:56.119Z,12.93
2018-04-28T02:10:27.321Z,12.68
2018-04-28T02:10:58.531Z,13.05
2018-04-28T02:11:29.746Z,13.82
2018-04-28T02:12:01.012Z,13.00
2018-04-28T02:12:32.264Z,13.45
2018-04-28T02:13:03.461Z,13.73
2018-04-28T02:13:34.676Z,12.82
2018-04-28T02:14:05.881Z,13.32
2018-04-28T02:14:37.112Z,13.95
2018-04-28T02:15:08.311Z,13.40
2018-04-28T02:15:39.525Z,13.27
2018-04-28T02:16:10.741Z,13.62
2018-04-28T02:16:41.949Z,13.82
2018-04-28T02:17:13.204Z,13.60
2018-04-28T02:17:44.421Z,13.55
2018-04-28T02:18:15.625Z,14.02
2018-04-28T02:18:46.838Z,13.85
2018-04-28T02:19:18.027Z,13.68
2018-04-28T02:19:49.233Z,12.95
2018-04-28T02:20:20.446Z,13.70
2018-04-28T02:20:51.657Z,12.73
2018-04-28T02:21:22.926Z,13.77
2018-04-28T02:21:54.140Z,14.68
2018-04-28T02:22:25.395Z,13.35
2018-04-28T02:22:56.599Z,12.50
2018-04-28T02:23:27.818Z,12.40
2018-04-28T02:23:59.020Z,13.27
2018-04-28T02:24:30.220Z,13.18
2018-04-28T02:25:01.435Z,12.73
2018-04-28T02:25:32.644Z,13.45
2018-04-28T02:26:03.848Z,12.57
2018-04-28T02:26:35.057Z,12.85
2018-04-28T02:27:06.267Z,12.77
2018-04-28T02:27:37.513Z,12.95
2018-04-28T02:28:08.703Z,12.45
2018-04-28T02:28:39.913Z,11.80
2018-04-28T02:29:11.116Z,12.75
2018-04-28T02:29:42.329Z,12.65
2018-04-28T02:30:13.544Z,12.25
2018-04-28T02:30:44.757Z,11.93
2018-04-28T02:31:15.985Z,12.93
2018-04-28T02:31:47.208Z,11.90
2018-04-28T02:32:18.423Z,13.20
2018-04-28T02:32:49.662Z,12.45
2018-04-28T02:33:20.865Z,12.65
2018-04-28T02:33:52.078Z,12.98
2018-04-28T02:34:23.294Z,12.90
2018-04-28T02:34:54.511Z,12.27
2018-04-28T02:35:25.750Z,12.43
2018-04-28T02:35:57.036Z,12.52
2018-04-28T02:36:28.217Z,11.80
2018-04-28T02:36:59.430Z,12.07
2018-04-28T02:37:30.667Z,12.02
2018-04-28T02:38:01.917Z,12.37
2018-04-28T02:38:33.204Z,12.60
2018-04-28T02:39:04.396Z,12.27
2018-04-28T02:39:35.613Z,12.05
2018-04-28T02:40:06.825Z,12.60
2018-04-28T02:40:38.036Z,12.85
2018-04-28T02:41:09.257Z,12.95
2018-04-28T02:41:40.496Z,12.45
2018-04-28T02:42:11.705Z,11.82
2018-04-28T02:42:42.915Z,12.18
2018-04-28T02:43:14.124Z,11.77
2018-04-28T02:43:45.325Z,12.18
2018-04-28T02:44:16.543Z,12.02
2018-04-28T02:44:47.760Z,12.43
2018-04-28T02:45:18.980Z,12.20
2018-04-28T02:45:50.234Z,12.45
2018-04-28T02:46:21.449Z,12.95
2018-04-28T02:46:52.660Z,12.50
2018-04-28T02:47:23.906Z,12.52
2018-04-28T02:47:55.128Z,12.50
2018-04-28T02:48:26.349Z,11.90
2018-04-28T02:48:57.542Z,12.80
2018-04-28T02:49:28.738Z,12.60
2018-04-28T02:49:59.999Z,12.73
2018-04-28T02:50:31.195Z,13.57
2018-04-28T02:51:02.507Z,12.73
2018-04-28T02:51:33.690Z,12.27
2018-04-28T02:52:04.892Z,13.35
2018-04-28T02:52:36.117Z,12.80
2018-04-28T02:53:07.391Z,13.98
2018-04-28T02:53:38.621Z,13.18
2018-04-28T02:54:09.842Z,13.15
2018-04-28T02:54:41.052Z,11.75
2018-04-28T02:55:12.280Z,13.00
2018-04-28T02:55:43.504Z,13.20
2018-04-28T02:56:14.721Z,13.25
2018-04-28T02:56:45.933Z,12.30
2018-04-28T02:57:17.142Z,12.80
2018-04-28T02:57:48.348Z,13.05
2018-04-28T02:58:19.595Z,12.80
2018-04-28T02:58:50.804Z,13.15
2018-04-28T02:59:22.028Z,13.80
2018-04-28T02:59:53.218Z,12.20
2018-04-28T03:00:24.424Z,12.95
2018-04-28T03:00:55.635Z,12.40
2018-04-28T03:01:26.845Z,12.10
2018-04-28T03:01:58.057Z,12.07
2018-04-28T03:02:29.300Z,12.77
2018-04-28T03:03:00.505Z,12.65
2018-04-28T03:03:31.779Z,12.68
2018-04-28T03:04:02.990Z,12.57
2018-04-28T03:04:34.208Z,13.18
2018-04-28T03:05:05.459Z,12.50
2018-04-28T03:05:36.673Z,12.43
2018-04-28T03:06:07.883Z,12.90
2018-04-28T03:06:39.101Z,12.98
2018-04-28T03:07:10.328Z,11.85
2018-04-28T03:07:41.546Z,13.30
2018-04-28T03:08:12.818Z,13.13
2018-04-28T03:08:44.061Z,13.20
2018-04-28T03:09:15.324Z,13.38
2018-04-28T03:09:46.583Z,14.20
2018-04-28T03:10:17.793Z,12.73
2018-04-28T03:10:49.002Z,12.88
2018-04-28T03:11:20.212Z,13.45
2018-04-28T03:11:51.458Z,13.85
2018-04-28T03:12:22.679Z,13.05
2018-04-28T03:12:53.891Z,13.00
2018-04-28T03:13:25.097Z,13.15
2018-04-28T03:13:56.300Z,13.38
2018-04-28T03:14:27.543Z,12.77
2018-04-28T03:14:58.797Z,11.70
2018-04-28T03:15:30.009Z,12.80
2018-04-28T03:16:01.218Z,11.75
2018-04-28T03:16:32.427Z,11.93
2018-04-28T03:17:03.641Z,12.77
2018-04-28T03:17:34.854Z,12.75
2018-04-28T03:18:06.077Z,11.68
2018-04-28T03:18:37.285Z,12.57
2018-04-28T03:19:08.497Z,12.10
2018-04-28T03:19:39.713Z,11.75
2018-04-28T03:20:10.948Z,11.90
2018-04-28T03:20:42.160Z,13.20
2018-04-28T03:21:13.361Z,13.77
2018-04-28T03:21:44.569Z,13.07
2018-04-28T03:22:15.783Z,13.65
2018-04-28T03:22:47.075Z,13.55
2018-04-28T03:23:18.323Z,13.10
2018-04-28T03:23:49.523Z,13.27
2018-04-28T03:24:20.776Z,13.20
2018-04-28T03:24:51.986Z,12.82
2018-04-28T03:25:23.190Z,13.40
2018-04-28T03:25:54.409Z,13.07
2018-04-28T03:26:25.612Z,13.60
2018-04-28T03:26:56.862Z,12.73
2018-04-28T03:27:28.098Z,12.75
2018-04-28T03:27:59.329Z,13.70
2018-04-28T03:28:30.539Z,14.02
2018-04-28T03:29:01.769Z,13.75
2018-04-28T03:29:33.017Z,13.88
2018-04-28T03:30:04.229Z,13.57
2018-04-28T03:30:35.437Z,13.85
2018-04-28T03:31:06.671Z,13.82
2018-04-28T03:31:37.882Z,14.15
2018-04-28T03:32:09.136Z,13.68
2018-04-28T03:32:40.341Z,13.27
2018-04-28T03:33:11.562Z,13.48
2018-04-28T03:33:42.781Z,13.50
2018-04-28T03:34:13.985Z,13.32
2018-04-28T03:34:45.201Z,14.20
2018-04-28T03:35:16.401Z,14.10
2018-04-28T03:35:47.628Z,12.80
2018-04-28T03:36:18.837Z,13.55
2018-04-28T03:36:50.057Z,13.80
2018-04-28T03:37:21.310Z,12.90
2018-04-28T03:37:52.518Z,13.68
2018-04-28T03:38:23.742Z,13.20
2018-04-28T03:38:54.952Z,13.18
2018-04-28T03:39:26.160Z,13.18
2018-04-28T03:39:57.369Z,13.25
2018-04-28T03:40:28.577Z,12.65
2018-04-28T03:40:59.784Z,12.48
2018-04-28T03:41:31.009Z,12.57
2018-04-28T03:42:02.224Z,12.93
2018-04-28T03:42:33.504Z,12.60
2018-04-28T03:43:04.721Z,13.55
2018-04-28T03:43:36.018Z,12.93
2018-04-28T03:44:07.240Z,12.70
2018-04-28T03:44:38.463Z,13.27
2018-04-28T03:45:09.669Z,13.52
2018-04-28T03:45:40.861Z,13.20
2018-04-28T03:46:12.070Z,13.25
2018-04-28T03:46:43.293Z,13.07
2018-04-28T03:47:14.492Z,12.48
2018-04-28T03:47:45.713Z,12.40
2018-04-28T03:48:16.941Z,12.45
2018-04-28T03:48:48.185Z,12.07
2018-04-28T03:49:19.398Z,11.15
2018-04-28T03:49:50.601Z,12.82
2018-04-28T03:50:21.813Z,12.68
2018-04-28T03:50:53.021Z,13.35
2018-04-28T03:51:24.234Z,14.23
2018-04-28T03:51:55.463Z,14.20
2018-04-28T03:52:26.660Z,14.32
2018-04-28T03:52:57.902Z,14.50
2018-04-28T03:53:29.171Z,12.35
2018-04-28T03:54:00.428Z,13.80
2018-04-28T03:54:31.637Z,14.38
2018-04-28T03:55:02.852Z,12.80
2018-04-28T03:55:34.058Z,14.18
2018-04-28T03:56:05.290Z,13.80
2018-04-28T03:56:36.505Z,13.35
2018-04-28T03:57:07.727Z,12.68
2018-04-28T03:57:38.945Z,13.62
2018-04-28T03:58:10.152Z,13.13
2018-04-28T03:58:41.363Z,12.85
2018-04-28T03:59:12.615Z,13.50
2018-04-28T03:59:43.841Z,13.25
2018-04-28T04:00:15.057Z,13.65
2018-04-28T04:00:46.281Z,13.07
2018-04-28T04:01:17.489Z,12.95
2018-04-28T04:01:48.697Z,12.48
2018-04-28T04:02:19.909Z,13.00
2018-04-28T04:02:51.090Z,13.52
2018-04-28T04:03:22.292Z,13.50
2018-04-28T04:03:53.520Z,13.62
2018-04-28T04:04:24.834Z,13.48
2018-04-28T04:04:56.042Z,13.70
2018-04-28T04:05:27.249Z,12.73
2018-04-28T04:05:58.457Z,12.77
2018-04-28T04:06:30.243Z,12.27
2018-04-28T04:07:01.508Z,13.43
2018-04-28T04:07:32.713Z,12.43
2018-04-28T04:08:03.931Z,13.00
2018-04-28T04:08:35.147Z,12.90
2018-04-28T04:09:06.362Z,12.80
2018-04-28T04:09:37.621Z,12.32
2018-04-28T04:10:08.832Z,12.90
2018-04-28T04:10:40.037Z,12.77
2018-04-28T04:11:11.255Z,12.32
2018-04-28T04:11:42.480Z,12.35
2018-04-28T04:12:13.688Z,12.00
2018-04-28T04:12:44.889Z,12.70
2018-04-28T04:13:16.144Z,13.68
2018-04-28T04:13:47.354Z,13.05
2018-04-28T04:14:18.566Z,13.13
2018-04-28T04:14:49.812Z,12.85
2018-04-28T04:15:21.033Z,13.88
2018-04-28T04:15:52.256Z,13.18
2018-04-28T04:16:23.465Z,12.95
2018-04-28T04:16:54.669Z,13.32
2018-04-28T04:17:25.880Z,13.13
2018-04-28T04:17:57.092Z,13.38
2018-04-28T04:18:28.300Z,13.13
2018-04-28T04:18:59.515Z,12.65
2018-04-28T04:19:30.785Z,13.23
2018-04-28T04:20:02.129Z,13.10
2018-04-28T04:20:33.358Z,12.57
2018-04-28T04:21:04.636Z,13.07
2018-04-28T04:21:35.834Z,13.48
2018-04-28T04:22:07.078Z,13.52
2018-04-28T04:22:38.303Z,13.55
2018-04-28T04:23:09.512Z,12.77
2018-04-28T04:23:40.748Z,11.65
2018-04-28T04:24:11.950Z,12.10
2018-04-28T04:24:43.175Z,12.05
2018-04-28T04:25:14.395Z,13.32
2018-04-28T04:25:45.602Z,12.57
2018-04-28T04:26:16.848Z,11.82
2018-04-28T04:26:48.061Z,12.52
2018-04-28T04:27:19.269Z,12.07
2018-04-28T04:27:50.489Z,13.35
2018-04-28T04:28:21.741Z,13.30
2018-04-28T04:28:52.961Z,12.95
2018-04-28T04:29:24.173Z,12.80
2018-04-28T04:29:55.394Z,12.57
2018-04-28T04:30:26.604Z,13.70
2018-04-28T04:30:57.816Z,12.75
2018-04-28T04:31:29.025Z,13.35
2018-04-28T04:32:00.371Z,13.35
2018-04-28T04:32:31.536Z,12.82
2018-04-28T04:33:02.751Z,13.07
2018-04-28T04:33:33.989Z,13.35
2018-04-28T04:34:05.206Z,13.00
2018-04-28T04:34:36.418Z,13.57
2018-04-28T04:35:07.617Z,13.20
2018-04-28T04:35:38.835Z,13.40
2018-04-28T04:36:10.041Z,12.55
2018-04-28T04:36:41.245Z,12.25
2018-04-28T04:37:12.491Z,11.95
2018-04-28T04:37:43.719Z,12.70
2018-04-28T04:38:14.956Z,12.18
2018-04-28T04:38:46.168Z,12.30
2018-04-28T04:39:17.386Z,12.50
2018-04-28T04:39:48.608Z,12.65
2018-04-28T04:40:19.824Z,12.27
2018-04-28T04:40:51.033Z,12.55
2018-04-28T04:41:22.244Z,12.95
2018-04-28T04:41:53.497Z,12.05
2018-04-28T04:42:24.717Z,12.73
2018-04-28T04:42:56.041Z,11.95
2018-04-28T04:43:27.245Z,11.88
2018-04-28T04:43:58.453Z,11.93
2018-04-28T04:44:29.679Z,12.52
2018-04-28T04:45:00.888Z,11.98
2018-04-28T04:45:32.097Z,12.40
2018-04-28T04:46:03.306Z,12.35
2018-04-28T04:46:34.529Z,12.73
2018-04-28T04:47:05.741Z,12.60
2018-04-28T04:47:36.963Z,12.90
2018-04-28T04:48:08.228Z,13.27
2018-04-28T04:48:39.442Z,12.88
2018-04-28T04:49:10.666Z,12.00
2018-04-28T04:49:41.886Z,11.80
2018-04-28T04:50:13.089Z,11.88
2018-04-28T04:50:44.298Z,11.55
2018-04-28T04:51:15.522Z,12.60
2018-04-28T04:51:46.734Z,12.20
2018-04-28T04:52:17.941Z,12.20
2018-04-28T04:52:49.153Z,11.27
2018-04-28T04:53:21.047Z,12.07
2018-04-28T04:53:52.270Z,11.25
2018-04-28T04:54:23.485Z,11.68
2018-04-28T04:54:54.688Z,11.15
2018-04-28T04:55:25.911Z,11.93
2018-04-28T04:55:57.186Z,11.43
2018-04-28T04:56:28.431Z,12.45
2018-04-28T04:56:59.658Z,12.50
2018-04-28T04:57:30.889Z,12.13
2018-04-28T04:58:02.087Z,12.13
2018-04-28T04:58:33.299Z,12.05
2018-04-28T04:59:04.523Z,12.65
2018-04-28T04:59:35.740Z,12.23
2018-04-28T05:00:06.950Z,10.82
2018-04-28T05:00:38.185Z,12.82
2018-04-28T05:01:09.437Z,12.18
2018-04-28T05:01:40.649Z,12.68
2018-04-28T05:02:11.893Z,12.07
2018-04-28T05:02:43.104Z,11.57
2018-04-28T05:03:14.309Z,12.27
2018-04-28T05:03:45.557Z,12.30
2018-04-28T05:04:16.765Z,12.57
2018-04-28T05:04:47.979Z,11.93
2018-04-28T05:05:19.189Z,12.52
2018-04-28T05:05:50.402Z,11.88
2018-04-28T05:06:21.653Z,12.23
2018-04-28T05:06:52.923Z,12.00
2018-04-28T05:07:24.151Z,12.45
2018-04-28T05:07:55.364Z,10.68
2018-04-28T05:08:26.598Z,12.10
2018-04-28T05:08:57.832Z,11.38
2018-04-28T05:09:29.046Z,11.55
2018-04-28T05:10:00.270Z,11.12
2018-04-28T05:10:31.532Z,12.85
2018-04-28T05:11:02.754Z,12.70
2018-04-28T05:11:34.001Z,11.63
2018-04-28T05:12:05.224Z,12.32
2018-04-28T05:12:36.433Z,12.00
2018-04-28T05:13:07.674Z,12.93
2018-04-28T05:13:38.883Z,12.27
2018-04-28T05:14:10.088Z,12.73
2018-04-28T05:14:41.293Z,11.60
2018-04-28T05:15:12.503Z,11.52
2018-04-28T05:15:43.769Z,11.60
2018-04-28T05:16:14.988Z,10.93
2018-04-28T05:16:46.207Z,11.68
2018-04-28T05:17:17.413Z,12.35
2018-04-28T05:17:48.646Z,11.75
2018-04-28T05:18:19.862Z,11.63
2018-04-28T05:18:51.068Z,11.88
2018-04-28T05:19:22.284Z,11.40
2018-04-28T05:19:53.492Z,12.13
2018-04-28T05:20:25.338Z,11.80
2018-04-28T05:20:56.597Z,12.35
2018-04-28T05:21:27.808Z,11.80
2018-04-28T05:21:59.085Z,11.57
2018-04-28T05:22:30.304Z,12.07
2018-04-28T05:23:01.514Z,11.80
2018-04-28T05:23:32.737Z,12.00
2018-04-28T05:24:03.956Z,12.18
2018-04-28T05:24:35.170Z,12.05
2018-04-28T05:25:06.373Z,11.43
2018-04-28T05:25:37.576Z,11.40
2018-04-28T05:26:08.824Z,10.95
2018-04-28T05:26:40.039Z,11.25
2018-04-28T05:27:11.287Z,11.52
2018-04-28T05:27:42.539Z,12.00
2018-04-28T05:28:13.760Z,11.77
2018-04-28T05:28:44.981Z,11.55
2018-04-28T05:29:16.229Z,11.70
2018-04-28T05:29:47.479Z,12.37
2018-04-28T05:30:18.724Z,11.52
2018-04-28T05:30:49.950Z,12.35
2018-04-28T05:31:21.185Z,11.68
2018-04-28T05:31:52.413Z,11.93
2018-04-28T05:32:23.633Z,12.23
2018-04-28T05:32:54.912Z,11.43
2018-04-28T05:33:26.192Z,11.57
2018-04-28T05:33:57.412Z,12.02
2018-04-28T05:34:28.665Z,12.55
2018-04-28T05:34:59.885Z,12.18
2018-04-28T05:35:31.129Z,11.93
2018-04-28T05:36:02.435Z,12.32
2018-04-28T05:36:33.614Z,12.23
2018-04-28T05:37:04.832Z,11.88
2018-04-28T05:37:36.102Z,11.80
2018-04-28T05:38:07.418Z,11.45
2018-04-28T05:38:38.640Z,12.20
2018-04-28T05:39:09.922Z,11.55
2018-04-28T05:39:41.190Z,11.93
2018-04-28T05:40:12.428Z,12.10
2018-04-28T05:40:43.649Z,12.02
2018-04-28T05:41:14.857Z,11.95
2018-04-28T05:41:46.082Z,11.35
2018-04-28T05:42:17.311Z,12.00
2018-04-28T05:42:48.533Z,11.48
2018-04-28T05:43:19.826Z,12.10
2018-04-28T05:43:51.062Z,11.82
2018-04-28T05:44:22.276Z,11.63
2018-04-28T05:44:53.532Z,11.65
2018-04-28T05:45:24.741Z,12.10
2018-04-28T05:45:56.000Z,12.23
2018-04-28T05:46:27.220Z,11.07
2018-04-28T05:46:58.442Z,11.77
2018-04-28T05:47:29.657Z,11.88
2018-04-28T05:48:00.871Z,11.57
2018-04-28T05:48:32.081Z,11.90
2018-04-28T05:49:03.307Z,11.70
2018-04-28T05:49:34.530Z,11.77
2018-04-28T05:50:05.786Z,12.02
2018-04-28T05:50:36.999Z,11.90
2018-04-28T05:51:08.205Z,12.02
2018-04-28T05:51:39.415Z,12.18
2018-04-28T05:52:10.633Z,11.52
2018-04-28T05:52:41.876Z,12.93
2018-04-28T05:53:13.105Z,12.18
2018-04-28T05:53:44.338Z,11.82
2018-04-28T05:54:15.558Z,12.82
2018-04-28T05:54:46.777Z,12.13
2018-04-28T05:55:17.984Z,12.32
2018-04-28T05:55:49.198Z,12.40
2018-04-28T05:56:20.463Z,12.37
2018-04-28T05:56:51.705Z,11.95
2018-04-28T05:57:22.904Z,12.70
2018-04-28T05:57:54.174Z,12.20
2018-04-28T05:58:25.420Z,12.73
2018-04-28T05:58:56.692Z,12.02
2018-04-28T05:59:27.930Z,12.10
2018-04-28T05:59:59.158Z,11.63
2018-04-28T06:00:30.381Z,11.75
2018-04-28T06:01:01.585Z,12.40
2018-04-28T06:01:32.797Z,12.30
2018-04-28T06:02:04.057Z,12.25
2018-04-28T06:02:35.265Z,12.55
2018-04-28T06:03:06.489Z,11.98
2018-04-28T06:03:37.707Z,12.70
2018-04-28T06:04:08.944Z,12.63
2018-04-28T06:04:41.877Z,12.52
2018-04-28T06:05:13.868Z,13.02
2018-04-28T06:05:45.099Z,12.27
2018-04-28T06:06:16.308Z,12.55
2018-04-28T06:06:47.531Z,12.60
2018-04-28T06:07:18.828Z,12.57
2018-04-28T06:07:50.044Z,13.05
2018-04-28T06:08:21.264Z,12.82
2018-04-28T06:08:52.470Z,11.60
2018-04-28T06:09:23.687Z,12.52
2018-04-28T06:09:54.879Z,12.43
2018-04-28T06:10:26.090Z,12.73
2018-04-28T06:10:57.333Z,12.90
2018-04-28T06:11:28.593Z,12.07
2018-04-28T06:11:59.817Z,12.02
2018-04-28T06:12:31.141Z,12.30
2018-04-28T06:13:02.353Z,12.32
2018-04-28T06:13:33.590Z,12.18
2018-04-28T06:14:04.817Z,11.75
2018-04-28T06:14:36.082Z,12.32
2018-04-28T06:15:09.043Z,12.60
2018-04-28T06:15:41.247Z,11.10
2018-04-28T06:16:12.509Z,11.23
2018-04-28T06:16:43.766Z,11.32
2018-04-28T06:17:14.984Z,11.00
2018-04-28T06:17:46.203Z,11.98
2018-04-28T06:18:17.409Z,12.35
2018-04-28T06:18:48.691Z,12.15
2018-04-28T06:19:19.896Z,12.13
2018-04-28T06:19:51.107Z,12.23
2018-04-28T06:20:22.356Z,12.48
2018-04-28T06:20:53.614Z,12.50
2018-04-28T06:21:24.833Z,11.45
2018-04-28T06:21:56.058Z,12.20
2018-04-28T06:22:27.283Z,11.38
2018-04-28T06:22:58.569Z,12.37
2018-04-28T06:23:29.840Z,11.52
2018-04-28T06:24:01.089Z,11.75
2018-04-28T06:24:32.316Z,11.00
2018-04-28T06:25:03.561Z,10.60
2018-04-28T06:25:34.768Z,11.55
2018-04-28T06:26:06.167Z,11.10
2018-04-28T06:26:37.219Z,12.10
2018-04-28T06:27:08.432Z,11.30
2018-04-28T06:27:39.645Z,11.32
2018-04-28T06:28:10.903Z,11.30
2018-04-28T06:28:42.135Z,11.15
2018-04-28T06:29:13.328Z,11.93
2018-04-28T06:29:44.548Z,10.60
2018-04-28T06:30:15.817Z,10.48
2018-04-28T06:30:47.059Z,11.48
2018-04-28T06:31:18.275Z,11.35
2018-04-28T06:31:49.513Z,11.05
2018-04-28T06:32:20.766Z,10.82
2018-04-28T06:32:51.989Z,11.68
2018-04-28T06:33:23.198Z,11.60
2018-04-28T06:33:54.408Z,11.95
2018-04-28T06:34:25.746Z,11.65
2018-04-28T06:34:56.953Z,12.02
2018-04-28T06:35:29.076Z,11.05
2018-04-28T06:36:00.295Z,11.70
2018-04-28T06:36:31.540Z,11.75
2018-04-28T06:37:02.746Z,11.25
2018-04-28T06:37:33.953Z,11.73
2018-04-28T06:38:05.188Z,11.48
2018-04-28T06:38:36.416Z,11.52
2018-04-28T06:39:07.636Z,11.93
2018-04-28T06:39:38.901Z,11.75
2018-04-28T06:40:10.113Z,11.10
2018-04-28T06:40:41.346Z,11.30
2018-04-28T06:41:12.689Z,11.25
2018-04-28T06:41:43.860Z,11.48
2018-04-28T06:42:15.078Z,10.90